sensor_id;sensor_type;location;lat;lon;timestamp;P1;durP1;ratioP1;P2;durP2;ratioP2
19084;SDS011;9675;51.538;6.728;2024-01-15T00:01:10;21.57;;;8.57;;
19084;SDS011;9675;51.538;6.728;2024-01-15T00:03:37;20.80;;;8.80;;
19084;SDS011;9675;51.538;6.728;2024-01-15T00:06:04;16.80;;;6.90;;
19084;SDS011;9675;51.538;6.728;2024-01-15T00:08:32;16.90;;;7.07;;
19084;SDS011;9675;51.538;6.728;2024-01-15T00:10:59;19.20;;;6.23;;
19084;SDS011;9675;51.538;6.728;2024-01-15T00:13:26;22.40;;;8.93;;
19084;SDS011;9675;51.538;6.728;2024-01-15T00:15:53;30.83;;;9.70;;
19084;SDS011;9675;51.538;6.728;2024-01-15T00:18:21;33.77;;;8.67;;
19084;SDS011;9675;51.538;6.728;2024-01-15T00:20:48;16.80;;;7.13;;
19084;SDS011;9675;51.538;6.728;2024-01-15T00:23:15;15.43;;;6.37;;
19084;SDS011;9675;51.538;6.728;2024-01-15T00:25:42;12.83;;;5.33;;
19084;SDS011;9675;51.538;6.728;2024-01-15T00:28:09;15.17;;;5.50;;
19084;SDS011;9675;51.538;6.728;2024-01-15T00:30:36;18.23;;;7.23;;
19084;SDS011;9675;51.538;6.728;2024-01-15T00:33:04;21.13;;;8.40;;
19084;SDS011;9675;51.538;6.728;2024-01-15T00:35:32;15.37;;;6.43;;
19084;SDS011;9675;51.538;6.728;2024-01-15T00:37:59;19.30;;;8.07;;
19084;SDS011;9675;51.538;6.728;2024-01-15T00:40:26;21.23;;;6.63;;
19084;SDS011;9675;51.538;6.728;2024-01-15T00:42:53;10.87;;;5.17;;
19084;SDS011;9675;51.538;6.728;2024-01-15T00:45:20;18.13;;;6.87;;
19084;SDS011;9675;51.538;6.728;2024-01-15T00:47:47;16.10;;;6.27;;
19084;SDS011;9675;51.538;6.728;2024-01-15T00:50:15;7.83;;;3.60;;
19084;SDS011;9675;51.538;6.728;2024-01-15T00:52:43;13.90;;;5.33;;
19084;SDS011;9675;51.538;6.728;2024-01-15T00:55:10;22.53;;;7.73;;
19084;SDS011;9675;51.538;6.728;2024-01-15T00:57:37;3.93;;;2.43;;
19084;SDS011;9675;51.538;6.728;2024-01-15T01:00:05;14.70;;;5.90;;
19084;SDS011;9675;51.538;6.728;2024-01-15T01:02:34;6.63;;;3.07;;
19084;SDS011;9675;51.538;6.728;2024-01-15T01:05:01;13.90;;;4.73;;
19084;SDS011;9675;51.538;6.728;2024-01-15T01:07:28;14.40;;;6.27;;
19084;SDS011;9675;51.538;6.728;2024-01-15T01:09:56;15.23;;;5.00;;
19084;SDS011;9675;51.538;6.728;2024-01-15T01:12:23;24.50;;;9.47;;
19084;SDS011;9675;51.538;6.728;2024-01-15T01:14:50;11.33;;;4.87;;
19084;SDS011;9675;51.538;6.728;2024-01-15T01:17:17;23.43;;;8.93;;
19084;SDS011;9675;51.538;6.728;2024-01-15T01:19:44;19.70;;;9.67;;
19084;SDS011;9675;51.538;6.728;2024-01-15T01:22:12;16.07;;;6.23;;
19084;SDS011;9675;51.538;6.728;2024-01-15T01:24:39;13.27;;;6.10;;
19084;SDS011;9675;51.538;6.728;2024-01-15T01:27:07;15.43;;;7.13;;
19084;SDS011;9675;51.538;6.728;2024-01-15T01:29:34;20.37;;;8.87;;
19084;SDS011;9675;51.538;6.728;2024-01-15T01:32:01;17.93;;;7.50;;
19084;SDS011;9675;51.538;6.728;2024-01-15T01:34:28;10.47;;;4.47;;
19084;SDS011;9675;51.538;6.728;2024-01-15T01:36:56;12.33;;;6.10;;
19084;SDS011;9675;51.538;6.728;2024-01-15T01:39:23;15.70;;;7.33;;
19084;SDS011;9675;51.538;6.728;2024-01-15T01:41:50;15.17;;;6.57;;
19084;SDS011;9675;51.538;6.728;2024-01-15T01:44:18;19.93;;;7.83;;
19084;SDS011;9675;51.538;6.728;2024-01-15T01:46:45;12.00;;;5.80;;
19084;SDS011;9675;51.538;6.728;2024-01-15T01:49:12;15.07;;;5.67;;
19084;SDS011;9675;51.538;6.728;2024-01-15T01:51:40;2.83;;;1.10;;
19084;SDS011;9675;51.538;6.728;2024-01-15T01:54:07;16.23;;;7.77;;
19084;SDS011;9675;51.538;6.728;2024-01-15T01:56:37;17.63;;;6.10;;
19084;SDS011;9675;51.538;6.728;2024-01-15T01:59:04;14.33;;;6.53;;
19084;SDS011;9675;51.538;6.728;2024-01-15T02:01:37;13.90;;;6.03;;
19084;SDS011;9675;51.538;6.728;2024-01-15T02:04:05;15.73;;;7.13;;
19084;SDS011;9675;51.538;6.728;2024-01-15T02:06:33;7.77;;;4.20;;
19084;SDS011;9675;51.538;6.728;2024-01-15T02:09:00;11.13;;;4.20;;
19084;SDS011;9675;51.538;6.728;2024-01-15T02:11:27;12.43;;;4.40;;
19084;SDS011;9675;51.538;6.728;2024-01-15T02:13:55;16.97;;;5.30;;
19084;SDS011;9675;51.538;6.728;2024-01-15T02:16:22;11.60;;;4.33;;
19084;SDS011;9675;51.538;6.728;2024-01-15T02:18:50;9.00;;;3.87;;
19084;SDS011;9675;51.538;6.728;2024-01-15T02:21:17;17.57;;;6.70;;
19084;SDS011;9675;51.538;6.728;2024-01-15T02:23:45;11.10;;;4.90;;
19084;SDS011;9675;51.538;6.728;2024-01-15T02:26:13;7.83;;;3.03;;
19084;SDS011;9675;51.538;6.728;2024-01-15T02:28:41;18.63;;;5.47;;
19084;SDS011;9675;51.538;6.728;2024-01-15T02:31:09;9.73;;;4.87;;
19084;SDS011;9675;51.538;6.728;2024-01-15T02:33:36;8.70;;;4.63;;
19084;SDS011;9675;51.538;6.728;2024-01-15T02:36:03;10.20;;;4.67;;
19084;SDS011;9675;51.538;6.728;2024-01-15T02:38:31;16.47;;;6.57;;
19084;SDS011;9675;51.538;6.728;2024-01-15T02:40:59;12.27;;;5.67;;
19084;SDS011;9675;51.538;6.728;2024-01-15T02:43:26;11.27;;;4.87;;
19084;SDS011;9675;51.538;6.728;2024-01-15T02:45:53;9.73;;;3.27;;
19084;SDS011;9675;51.538;6.728;2024-01-15T02:48:20;5.47;;;2.83;;
19084;SDS011;9675;51.538;6.728;2024-01-15T02:50:47;12.37;;;6.33;;
19084;SDS011;9675;51.538;6.728;2024-01-15T02:53:15;14.53;;;5.70;;
19084;SDS011;9675;51.538;6.728;2024-01-15T02:55:42;14.40;;;5.03;;
19084;SDS011;9675;51.538;6.728;2024-01-15T02:58:10;13.47;;;4.43;;
19084;SDS011;9675;51.538;6.728;2024-01-15T03:00:37;11.93;;;4.87;;
19084;SDS011;9675;51.538;6.728;2024-01-15T03:03:04;10.93;;;3.00;;
19084;SDS011;9675;51.538;6.728;2024-01-15T03:05:31;8.47;;;4.47;;
19084;SDS011;9675;51.538;6.728;2024-01-15T03:07:58;7.87;;;3.23;;
19084;SDS011;9675;51.538;6.728;2024-01-15T03:10:25;12.23;;;3.90;;
19084;SDS011;9675;51.538;6.728;2024-01-15T03:12:52;12.33;;;4.73;;
19084;SDS011;9675;51.538;6.728;2024-01-15T03:15:21;11.40;;;3.37;;
19084;SDS011;9675;51.538;6.728;2024-01-15T03:17:48;13.40;;;4.40;;
19084;SDS011;9675;51.538;6.728;2024-01-15T03:20:15;9.80;;;2.60;;
19084;SDS011;9675;51.538;6.728;2024-01-15T03:22:42;17.50;;;5.67;;
19084;SDS011;9675;51.538;6.728;2024-01-15T03:25:09;8.97;;;3.73;;
19084;SDS011;9675;51.538;6.728;2024-01-15T03:27:36;8.97;;;4.40;;
19084;SDS011;9675;51.538;6.728;2024-01-15T03:30:03;7.90;;;2.60;;
19084;SDS011;9675;51.538;6.728;2024-01-15T03:32:33;7.10;;;3.10;;
19084;SDS011;9675;51.538;6.728;2024-01-15T03:35:00;10.50;;;4.00;;
19084;SDS011;9675;51.538;6.728;2024-01-15T03:37:27;3.17;;;1.90;;
19084;SDS011;9675;51.538;6.728;2024-01-15T03:39:54;9.43;;;3.77;;
19084;SDS011;9675;51.538;6.728;2024-01-15T03:42:21;6.67;;;2.77;;
19084;SDS011;9675;51.538;6.728;2024-01-15T03:44:48;8.30;;;4.53;;
19084;SDS011;9675;51.538;6.728;2024-01-15T03:47:15;9.90;;;3.27;;
19084;SDS011;9675;51.538;6.728;2024-01-15T03:49:43;5.37;;;2.33;;
19084;SDS011;9675;51.538;6.728;2024-01-15T03:52:10;5.73;;;2.70;;
19084;SDS011;9675;51.538;6.728;2024-01-15T03:54:37;3.43;;;1.87;;
19084;SDS011;9675;51.538;6.728;2024-01-15T03:57:04;5.43;;;3.13;;
19084;SDS011;9675;51.538;6.728;2024-01-15T03:59:31;10.43;;;2.90;;
19084;SDS011;9675;51.538;6.728;2024-01-15T04:01:58;5.43;;;2.83;;
19084;SDS011;9675;51.538;6.728;2024-01-15T04:04:25;6.23;;;3.10;;
19084;SDS011;9675;51.538;6.728;2024-01-15T04:06:54;5.53;;;2.57;;
19084;SDS011;9675;51.538;6.728;2024-01-15T04:09:21;6.90;;;3.00;;
19084;SDS011;9675;51.538;6.728;2024-01-15T04:11:48;5.43;;;2.33;;
19084;SDS011;9675;51.538;6.728;2024-01-15T04:14:15;6.13;;;3.13;;
19084;SDS011;9675;51.538;6.728;2024-01-15T04:16:42;3.87;;;2.43;;
19084;SDS011;9675;51.538;6.728;2024-01-15T04:19:09;4.60;;;1.60;;
19084;SDS011;9675;51.538;6.728;2024-01-15T04:21:36;4.27;;;2.63;;
19084;SDS011;9675;51.538;6.728;2024-01-15T04:24:05;15.17;;;3.87;;
19084;SDS011;9675;51.538;6.728;2024-01-15T04:26:32;7.83;;;2.57;;
19084;SDS011;9675;51.538;6.728;2024-01-15T04:28:59;7.10;;;3.60;;
19084;SDS011;9675;51.538;6.728;2024-01-15T04:31:26;5.40;;;3.43;;
19084;SDS011;9675;51.538;6.728;2024-01-15T04:33:53;5.83;;;2.43;;
19084;SDS011;9675;51.538;6.728;2024-01-15T04:36:20;10.27;;;3.30;;
19084;SDS011;9675;51.538;6.728;2024-01-15T04:38:48;7.07;;;3.53;;
19084;SDS011;9675;51.538;6.728;2024-01-15T04:41:16;6.07;;;2.47;;
19084;SDS011;9675;51.538;6.728;2024-01-15T04:43:43;8.77;;;3.60;;
19084;SDS011;9675;51.538;6.728;2024-01-15T04:46:10;7.53;;;3.97;;
19084;SDS011;9675;51.538;6.728;2024-01-15T04:48:37;6.07;;;2.53;;
19084;SDS011;9675;51.538;6.728;2024-01-15T04:51:04;5.60;;;2.37;;
19084;SDS011;9675;51.538;6.728;2024-01-15T04:53:34;6.20;;;3.17;;
19084;SDS011;9675;51.538;6.728;2024-01-15T04:56:01;8.83;;;3.70;;
19084;SDS011;9675;51.538;6.728;2024-01-15T04:58:31;3.40;;;1.93;;
19084;SDS011;9675;51.538;6.728;2024-01-15T05:00:58;3.00;;;2.23;;
19084;SDS011;9675;51.538;6.728;2024-01-15T05:03:25;11.47;;;4.27;;
19084;SDS011;9675;51.538;6.728;2024-01-15T05:05:52;3.63;;;1.77;;
19084;SDS011;9675;51.538;6.728;2024-01-15T05:08:19;4.90;;;1.43;;
19084;SDS011;9675;51.538;6.728;2024-01-15T05:10:46;10.80;;;2.60;;
19084;SDS011;9675;51.538;6.728;2024-01-15T05:13:13;3.33;;;1.73;;
19084;SDS011;9675;51.538;6.728;2024-01-15T05:15:42;7.03;;;3.00;;
19084;SDS011;9675;51.538;6.728;2024-01-15T05:18:09;6.23;;;3.53;;
19084;SDS011;9675;51.538;6.728;2024-01-15T05:20:36;7.90;;;3.20;;
19084;SDS011;9675;51.538;6.728;2024-01-15T05:23:03;6.37;;;2.23;;
19084;SDS011;9675;51.538;6.728;2024-01-15T05:25:30;13.00;;;3.90;;
19084;SDS011;9675;51.538;6.728;2024-01-15T05:27:57;12.70;;;4.60;;
19084;SDS011;9675;51.538;6.728;2024-01-15T05:30:24;16.63;;;6.60;;
19084;SDS011;9675;51.538;6.728;2024-01-15T05:32:52;13.40;;;4.93;;
19084;SDS011;9675;51.538;6.728;2024-01-15T05:35:19;21.20;;;8.53;;
19084;SDS011;9675;51.538;6.728;2024-01-15T05:37:46;6.93;;;3.03;;
19084;SDS011;9675;51.538;6.728;2024-01-15T05:40:13;18.73;;;6.80;;
19084;SDS011;9675;51.538;6.728;2024-01-15T05:42:41;15.33;;;6.37;;
19084;SDS011;9675;51.538;6.728;2024-01-15T05:45:08;14.17;;;5.70;;
19084;SDS011;9675;51.538;6.728;2024-01-15T05:47:35;11.23;;;3.93;;
19084;SDS011;9675;51.538;6.728;2024-01-15T05:50:04;8.07;;;4.10;;
19084;SDS011;9675;51.538;6.728;2024-01-15T05:52:32;12.43;;;4.57;;
19084;SDS011;9675;51.538;6.728;2024-01-15T05:54:59;7.13;;;3.13;;
19084;SDS011;9675;51.538;6.728;2024-01-15T05:57:26;7.87;;;3.40;;
19084;SDS011;9675;51.538;6.728;2024-01-15T05:59:53;10.67;;;3.80;;
19084;SDS011;9675;51.538;6.728;2024-01-15T06:02:20;3.70;;;1.43;;
19084;SDS011;9675;51.538;6.728;2024-01-15T06:04:47;4.40;;;2.37;;
19084;SDS011;9675;51.538;6.728;2024-01-15T06:07:16;7.90;;;3.70;;
19084;SDS011;9675;51.538;6.728;2024-01-15T06:09:43;4.93;;;2.37;;
19084;SDS011;9675;51.538;6.728;2024-01-15T06:12:10;4.90;;;2.17;;
19084;SDS011;9675;51.538;6.728;2024-01-15T06:14:37;7.13;;;3.63;;
19084;SDS011;9675;51.538;6.728;2024-01-15T06:17:04;5.50;;;2.33;;
19084;SDS011;9675;51.538;6.728;2024-01-15T06:19:31;5.50;;;2.77;;
19084;SDS011;9675;51.538;6.728;2024-01-15T06:21:58;9.47;;;3.10;;
19084;SDS011;9675;51.538;6.728;2024-01-15T06:24:26;6.13;;;2.47;;
19084;SDS011;9675;51.538;6.728;2024-01-15T06:26:53;4.63;;;2.20;;
19084;SDS011;9675;51.538;6.728;2024-01-15T06:29:20;2.80;;;1.50;;
19084;SDS011;9675;51.538;6.728;2024-01-15T06:31:49;3.17;;;1.80;;
19084;SDS011;9675;51.538;6.728;2024-01-15T06:34:16;3.30;;;2.00;;
19084;SDS011;9675;51.538;6.728;2024-01-15T06:36:43;3.90;;;1.70;;
19084;SDS011;9675;51.538;6.728;2024-01-15T06:39:10;6.60;;;2.50;;
19084;SDS011;9675;51.538;6.728;2024-01-15T06:41:38;2.60;;;1.73;;
19084;SDS011;9675;51.538;6.728;2024-01-15T06:44:08;1.43;;;0.97;;
19084;SDS011;9675;51.538;6.728;2024-01-15T06:46:35;2.93;;;1.37;;
19084;SDS011;9675;51.538;6.728;2024-01-15T06:49:03;8.67;;;1.57;;
19084;SDS011;9675;51.538;6.728;2024-01-15T06:51:30;2.60;;;0.70;;
19084;SDS011;9675;51.538;6.728;2024-01-15T06:53:57;1.23;;;0.83;;
19084;SDS011;9675;51.538;6.728;2024-01-15T06:56:24;4.10;;;0.83;;
19084;SDS011;9675;51.538;6.728;2024-01-15T06:58:52;6.30;;;1.73;;
19084;SDS011;9675;51.538;6.728;2024-01-15T07:01:19;0.83;;;0.70;;
19084;SDS011;9675;51.538;6.728;2024-01-15T07:03:46;2.83;;;0.97;;
19084;SDS011;9675;51.538;6.728;2024-01-15T07:06:13;2.67;;;0.90;;
19084;SDS011;9675;51.538;6.728;2024-01-15T07:08:40;3.30;;;1.37;;
19084;SDS011;9675;51.538;6.728;2024-01-15T07:11:08;4.77;;;1.13;;
19084;SDS011;9675;51.538;6.728;2024-01-15T07:13:36;1.27;;;1.10;;
19084;SDS011;9675;51.538;6.728;2024-01-15T07:16:05;1.07;;;0.73;;
19084;SDS011;9675;51.538;6.728;2024-01-15T07:18:32;2.00;;;0.50;;
19084;SDS011;9675;51.538;6.728;2024-01-15T07:20:59;0.87;;;0.57;;
19084;SDS011;9675;51.538;6.728;2024-01-15T07:23:27;1.30;;;0.70;;
19084;SDS011;9675;51.538;6.728;2024-01-15T07:25:55;1.60;;;0.80;;
19084;SDS011;9675;51.538;6.728;2024-01-15T07:28:22;0.67;;;0.23;;
19084;SDS011;9675;51.538;6.728;2024-01-15T07:30:49;4.73;;;1.07;;
19084;SDS011;9675;51.538;6.728;2024-01-15T07:33:18;1.87;;;1.00;;
19084;SDS011;9675;51.538;6.728;2024-01-15T07:35:45;3.57;;;1.00;;
19084;SDS011;9675;51.538;6.728;2024-01-15T07:38:12;2.73;;;1.37;;
19084;SDS011;9675;51.538;6.728;2024-01-15T07:40:40;1.60;;;1.13;;
19084;SDS011;9675;51.538;6.728;2024-01-15T07:43:07;4.93;;;2.10;;
19084;SDS011;9675;51.538;6.728;2024-01-15T07:45:34;2.53;;;1.27;;
19084;SDS011;9675;51.538;6.728;2024-01-15T07:48:01;2.13;;;1.27;;
19084;SDS011;9675;51.538;6.728;2024-01-15T07:50:30;1.07;;;0.13;;
19084;SDS011;9675;51.538;6.728;2024-01-15T07:52:57;3.57;;;1.87;;
19084;SDS011;9675;51.538;6.728;2024-01-15T07:55:24;2.23;;;1.27;;
19084;SDS011;9675;51.538;6.728;2024-01-15T07:57:51;4.50;;;1.60;;
19084;SDS011;9675;51.538;6.728;2024-01-15T08:00:23;1.83;;;0.97;;
19084;SDS011;9675;51.538;6.728;2024-01-15T08:02:51;2.00;;;1.13;;
19084;SDS011;9675;51.538;6.728;2024-01-15T08:05:18;5.83;;;3.13;;
19084;SDS011;9675;51.538;6.728;2024-01-15T08:07:47;1.37;;;1.03;;
19084;SDS011;9675;51.538;6.728;2024-01-15T08:10:14;3.07;;;1.47;;
19084;SDS011;9675;51.538;6.728;2024-01-15T08:12:41;4.20;;;1.90;;
19084;SDS011;9675;51.538;6.728;2024-01-15T08:15:08;2.60;;;1.17;;
19084;SDS011;9675;51.538;6.728;2024-01-15T08:17:35;2.97;;;1.53;;
19084;SDS011;9675;51.538;6.728;2024-01-15T08:20:03;6.50;;;2.47;;
19084;SDS011;9675;51.538;6.728;2024-01-15T08:22:31;6.53;;;1.63;;
19084;SDS011;9675;51.538;6.728;2024-01-15T08:24:59;10.77;;;3.53;;
19084;SDS011;9675;51.538;6.728;2024-01-15T08:27:26;3.00;;;1.70;;
19084;SDS011;9675;51.538;6.728;2024-01-15T08:29:53;5.03;;;2.23;;
19084;SDS011;9675;51.538;6.728;2024-01-15T08:32:20;4.00;;;1.67;;
19084;SDS011;9675;51.538;6.728;2024-01-15T08:34:47;1.20;;;1.10;;
19084;SDS011;9675;51.538;6.728;2024-01-15T08:37:17;0.90;;;0.57;;
19084;SDS011;9675;51.538;6.728;2024-01-15T08:39:44;0.63;;;0.50;;
19084;SDS011;9675;51.538;6.728;2024-01-15T08:42:13;5.60;;;2.40;;
19084;SDS011;9675;51.538;6.728;2024-01-15T08:44:40;4.50;;;1.93;;
19084;SDS011;9675;51.538;6.728;2024-01-15T08:47:08;6.43;;;2.07;;
19084;SDS011;9675;51.538;6.728;2024-01-15T08:49:35;4.20;;;1.83;;
19084;SDS011;9675;51.538;6.728;2024-01-15T08:52:03;3.37;;;1.87;;
19084;SDS011;9675;51.538;6.728;2024-01-15T08:54:30;1.50;;;1.20;;
19084;SDS011;9675;51.538;6.728;2024-01-15T08:56:57;3.13;;;2.10;;
19084;SDS011;9675;51.538;6.728;2024-01-15T08:59:26;2.27;;;1.33;;
19084;SDS011;9675;51.538;6.728;2024-01-15T09:01:53;2.13;;;1.13;;
19084;SDS011;9675;51.538;6.728;2024-01-15T09:04:22;3.30;;;1.07;;
19084;SDS011;9675;51.538;6.728;2024-01-15T09:06:49;1.47;;;1.20;;
19084;SDS011;9675;51.538;6.728;2024-01-15T09:09:16;2.07;;;0.93;;
19084;SDS011;9675;51.538;6.728;2024-01-15T09:11:44;2.77;;;1.33;;
19084;SDS011;9675;51.538;6.728;2024-01-15T09:14:12;3.23;;;0.90;;
19084;SDS011;9675;51.538;6.728;2024-01-15T09:16:40;1.77;;;1.40;;
19084;SDS011;9675;51.538;6.728;2024-01-15T09:19:08;0.83;;;0.50;;
19084;SDS011;9675;51.538;6.728;2024-01-15T09:21:35;1.40;;;1.00;;
19084;SDS011;9675;51.538;6.728;2024-01-15T09:24:04;1.33;;;1.03;;
19084;SDS011;9675;51.538;6.728;2024-01-15T09:26:32;1.03;;;0.83;;
19084;SDS011;9675;51.538;6.728;2024-01-15T09:28:59;2.33;;;1.00;;
19084;SDS011;9675;51.538;6.728;2024-01-15T09:31:27;1.57;;;0.77;;
19084;SDS011;9675;51.538;6.728;2024-01-15T09:33:56;1.70;;;0.83;;
19084;SDS011;9675;51.538;6.728;2024-01-15T09:36:25;4.47;;;1.40;;
19084;SDS011;9675;51.538;6.728;2024-01-15T09:38:52;2.43;;;1.20;;
19084;SDS011;9675;51.538;6.728;2024-01-15T09:41:19;2.50;;;1.40;;
19084;SDS011;9675;51.538;6.728;2024-01-15T09:43:46;3.80;;;2.40;;
19084;SDS011;9675;51.538;6.728;2024-01-15T09:46:15;3.07;;;1.77;;
19084;SDS011;9675;51.538;6.728;2024-01-15T09:48:43;2.90;;;1.47;;
19084;SDS011;9675;51.538;6.728;2024-01-15T09:51:11;2.37;;;1.53;;
19084;SDS011;9675;51.538;6.728;2024-01-15T09:53:38;0.87;;;0.53;;
19084;SDS011;9675;51.538;6.728;2024-01-15T09:56:08;5.40;;;2.10;;
19084;SDS011;9675;51.538;6.728;2024-01-15T09:58:37;2.77;;;1.60;;
19084;SDS011;9675;51.538;6.728;2024-01-15T10:01:06;2.03;;;1.33;;
19084;SDS011;9675;51.538;6.728;2024-01-15T10:03:35;1.90;;;1.43;;
19084;SDS011;9675;51.538;6.728;2024-01-15T10:06:03;4.43;;;1.63;;
19084;SDS011;9675;51.538;6.728;2024-01-15T10:08:33;1.77;;;1.30;;
19084;SDS011;9675;51.538;6.728;2024-01-15T10:11:04;1.83;;;0.73;;
19084;SDS011;9675;51.538;6.728;2024-01-15T10:13:31;1.17;;;0.90;;
19084;SDS011;9675;51.538;6.728;2024-01-15T10:16:00;4.63;;;1.17;;
19084;SDS011;9675;51.538;6.728;2024-01-15T10:18:28;2.07;;;1.37;;
19084;SDS011;9675;51.538;6.728;2024-01-15T10:20:56;2.33;;;1.60;;
19084;SDS011;9675;51.538;6.728;2024-01-15T10:23:23;2.73;;;1.50;;
19084;SDS011;9675;51.538;6.728;2024-01-15T10:25:52;1.60;;;0.90;;
19084;SDS011;9675;51.538;6.728;2024-01-15T10:28:19;4.87;;;1.40;;
19084;SDS011;9675;51.538;6.728;2024-01-15T10:30:46;2.53;;;1.37;;
19084;SDS011;9675;51.538;6.728;2024-01-15T10:33:19;5.83;;;1.70;;
19084;SDS011;9675;51.538;6.728;2024-01-15T10:35:50;1.43;;;1.00;;
19084;SDS011;9675;51.538;6.728;2024-01-15T10:38:21;3.40;;;0.77;;
19084;SDS011;9675;51.538;6.728;2024-01-15T10:40:50;2.27;;;1.00;;
19084;SDS011;9675;51.538;6.728;2024-01-15T10:43:20;2.47;;;1.23;;
19084;SDS011;9675;51.538;6.728;2024-01-15T10:45:49;0.60;;;0.40;;
19084;SDS011;9675;51.538;6.728;2024-01-15T10:48:17;1.97;;;0.57;;
19084;SDS011;9675;51.538;6.728;2024-01-15T10:50:46;1.13;;;0.70;;
19084;SDS011;9675;51.538;6.728;2024-01-15T10:53:14;5.83;;;1.13;;
19084;SDS011;9675;51.538;6.728;2024-01-15T10:55:43;7.53;;;1.00;;
19084;SDS011;9675;51.538;6.728;2024-01-15T10:58:15;3.43;;;1.57;;
19084;SDS011;9675;51.538;6.728;2024-01-15T11:00:44;0.70;;;0.40;;
19084;SDS011;9675;51.538;6.728;2024-01-15T11:03:12;5.70;;;1.23;;
19084;SDS011;9675;51.538;6.728;2024-01-15T11:05:41;1.43;;;0.80;;
19084;SDS011;9675;51.538;6.728;2024-01-15T11:08:10;1.97;;;1.00;;
19084;SDS011;9675;51.538;6.728;2024-01-15T11:10:37;1.70;;;1.17;;
19084;SDS011;9675;51.538;6.728;2024-01-15T11:13:08;2.90;;;1.13;;
19084;SDS011;9675;51.538;6.728;2024-01-15T11:18:25;1.03;;;0.93;;
19084;SDS011;9675;51.538;6.728;2024-01-15T11:23:53;5.50;;;2.70;;
19084;SDS011;9675;51.538;6.728;2024-01-15T11:26:29;1.63;;;1.00;;
19084;SDS011;9675;51.538;6.728;2024-01-15T11:29:00;4.40;;;2.63;;
19084;SDS011;9675;51.538;6.728;2024-01-15T11:37:19;2.10;;;1.43;;
19084;SDS011;9675;51.538;6.728;2024-01-15T11:39:49;3.10;;;1.97;;
19084;SDS011;9675;51.538;6.728;2024-01-15T11:42:20;1.83;;;0.80;;
19084;SDS011;9675;51.538;6.728;2024-01-15T11:44:49;2.93;;;1.47;;
19084;SDS011;9675;51.538;6.728;2024-01-15T11:47:22;1.60;;;0.83;;
19084;SDS011;9675;51.538;6.728;2024-01-15T11:50:29;10.03;;;2.47;;
19084;SDS011;9675;51.538;6.728;2024-01-15T11:52:58;4.27;;;2.10;;
19084;SDS011;9675;51.538;6.728;2024-01-15T11:55:29;10.17;;;4.27;;
19084;SDS011;9675;51.538;6.728;2024-01-15T11:58:01;4.57;;;1.30;;
19084;SDS011;9675;51.538;6.728;2024-01-15T12:00:33;2.60;;;1.53;;
19084;SDS011;9675;51.538;6.728;2024-01-15T12:03:02;1.87;;;1.23;;
19084;SDS011;9675;51.538;6.728;2024-01-15T12:05:31;4.10;;;1.83;;
19084;SDS011;9675;51.538;6.728;2024-01-15T12:07:58;1.13;;;1.03;;
19084;SDS011;9675;51.538;6.728;2024-01-15T12:10:25;3.97;;;1.50;;
19084;SDS011;9675;51.538;6.728;2024-01-15T12:12:54;7.00;;;1.97;;
19084;SDS011;9675;51.538;6.728;2024-01-15T12:15:25;2.63;;;1.20;;
19084;SDS011;9675;51.538;6.728;2024-01-15T12:17:54;2.33;;;1.93;;
19084;SDS011;9675;51.538;6.728;2024-01-15T12:20:25;4.27;;;1.30;;
19084;SDS011;9675;51.538;6.728;2024-01-15T12:22:53;1.37;;;0.87;;
19084;SDS011;9675;51.538;6.728;2024-01-15T12:25:21;1.93;;;1.07;;
19084;SDS011;9675;51.538;6.728;2024-01-15T12:27:49;2.10;;;1.20;;
19084;SDS011;9675;51.538;6.728;2024-01-15T12:30:17;2.13;;;1.10;;
19084;SDS011;9675;51.538;6.728;2024-01-15T12:32:44;2.03;;;0.90;;
19084;SDS011;9675;51.538;6.728;2024-01-15T12:35:12;0.87;;;0.63;;
19084;SDS011;9675;51.538;6.728;2024-01-15T12:37:42;4.73;;;0.20;;
19084;SDS011;9675;51.538;6.728;2024-01-15T12:40:11;0.40;;;0.40;;
19084;SDS011;9675;51.538;6.728;2024-01-15T12:42:39;4.57;;;0.80;;
19084;SDS011;9675;51.538;6.728;2024-01-15T12:45:08;1.40;;;0.30;;
19084;SDS011;9675;51.538;6.728;2024-01-15T12:47:37;0.10;;;0.10;;
19084;SDS011;9675;51.538;6.728;2024-01-15T12:50:06;2.07;;;0.50;;
19084;SDS011;9675;51.538;6.728;2024-01-15T12:52:34;4.93;;;1.03;;
19084;SDS011;9675;51.538;6.728;2024-01-15T12:55:04;0.47;;;0.40;;
19084;SDS011;9675;51.538;6.728;2024-01-15T12:57:34;0.83;;;0.50;;
19084;SDS011;9675;51.538;6.728;2024-01-15T13:00:02;0.20;;;0.20;;
19084;SDS011;9675;51.538;6.728;2024-01-15T13:02:31;0.50;;;0.50;;
19084;SDS011;9675;51.538;6.728;2024-01-15T13:04:59;3.90;;;0.53;;
19084;SDS011;9675;51.538;6.728;2024-01-15T13:07:26;3.67;;;1.73;;
19084;SDS011;9675;51.538;6.728;2024-01-15T13:09:53;6.23;;;0.87;;
19084;SDS011;9675;51.538;6.728;2024-01-15T13:12:22;2.03;;;0.40;;
19084;SDS011;9675;51.538;6.728;2024-01-15T13:14:50;1.13;;;0.77;;
19084;SDS011;9675;51.538;6.728;2024-01-15T13:17:17;0.40;;;0.40;;
19084;SDS011;9675;51.538;6.728;2024-01-15T13:19:45;0.30;;;0.30;;
19084;SDS011;9675;51.538;6.728;2024-01-15T13:22:13;0.70;;;0.60;;
19084;SDS011;9675;51.538;6.728;2024-01-15T13:24:40;0.93;;;0.57;;
19084;SDS011;9675;51.538;6.728;2024-01-15T13:27:08;2.83;;;0.80;;
19084;SDS011;9675;51.538;6.728;2024-01-15T13:29:37;2.13;;;1.00;;
19084;SDS011;9675;51.538;6.728;2024-01-15T13:32:04;2.10;;;0.47;;
19084;SDS011;9675;51.538;6.728;2024-01-15T13:34:31;3.30;;;0.30;;
19084;SDS011;9675;51.538;6.728;2024-01-15T13:36:58;0.77;;;0.50;;
19084;SDS011;9675;51.538;6.728;2024-01-15T13:39:25;0.60;;;0.57;;
19084;SDS011;9675;51.538;6.728;2024-01-15T13:41:52;1.27;;;1.17;;
19084;SDS011;9675;51.538;6.728;2024-01-15T13:44:19;3.43;;;1.53;;
19084;SDS011;9675;51.538;6.728;2024-01-15T13:46:47;1.30;;;0.73;;
19084;SDS011;9675;51.538;6.728;2024-01-15T13:49:14;5.23;;;1.07;;
19084;SDS011;9675;51.538;6.728;2024-01-15T13:51:41;0.57;;;0.57;;
19084;SDS011;9675;51.538;6.728;2024-01-15T13:54:09;0.97;;;0.80;;
19084;SDS011;9675;51.538;6.728;2024-01-15T13:56:36;0.87;;;0.43;;
19084;SDS011;9675;51.538;6.728;2024-01-15T13:59:03;0.83;;;0.50;;
19084;SDS011;9675;51.538;6.728;2024-01-15T14:01:30;0.63;;;0.30;;
19084;SDS011;9675;51.538;6.728;2024-01-15T14:03:59;0.73;;;0.40;;
19084;SDS011;9675;51.538;6.728;2024-01-15T14:06:26;1.40;;;0.57;;
19084;SDS011;9675;51.538;6.728;2024-01-15T14:08:53;0.70;;;0.70;;
19084;SDS011;9675;51.538;6.728;2024-01-15T14:11:20;0.97;;;0.63;;
19084;SDS011;9675;51.538;6.728;2024-01-15T14:13:48;5.87;;;0.63;;
19084;SDS011;9675;51.538;6.728;2024-01-15T14:16:15;1.03;;;0.50;;
19084;SDS011;9675;51.538;6.728;2024-01-15T14:18:42;0.40;;;0.40;;
19084;SDS011;9675;51.538;6.728;2024-01-15T14:21:10;2.67;;;0.53;;
19084;SDS011;9675;51.538;6.728;2024-01-15T14:23:37;0.90;;;0.67;;
19084;SDS011;9675;51.538;6.728;2024-01-15T14:26:04;0.53;;;0.30;;
19084;SDS011;9675;51.538;6.728;2024-01-15T14:28:31;0.53;;;0.33;;
19084;SDS011;9675;51.538;6.728;2024-01-15T14:30:58;0.73;;;0.30;;
19084;SDS011;9675;51.538;6.728;2024-01-15T14:33:25;2.07;;;0.30;;
19084;SDS011;9675;51.538;6.728;2024-01-15T14:35:53;2.77;;;1.10;;
19084;SDS011;9675;51.538;6.728;2024-01-15T14:38:21;1.20;;;0.73;;
19084;SDS011;9675;51.538;6.728;2024-01-15T14:40:48;1.00;;;0.50;;
19084;SDS011;9675;51.538;6.728;2024-01-15T14:43:15;1.37;;;0.80;;
19084;SDS011;9675;51.538;6.728;2024-01-15T14:45:42;0.83;;;0.60;;
19084;SDS011;9675;51.538;6.728;2024-01-15T14:48:11;5.77;;;0.73;;
19084;SDS011;9675;51.538;6.728;2024-01-15T14:50:38;0.30;;;0.30;;
19084;SDS011;9675;51.538;6.728;2024-01-15T14:53:06;0.23;;;0.13;;
19084;SDS011;9675;51.538;6.728;2024-01-15T14:55:34;0.37;;;0.37;;
19084;SDS011;9675;51.538;6.728;2024-01-15T14:58:02;2.67;;;1.00;;
19084;SDS011;9675;51.538;6.728;2024-01-15T15:00:29;0.50;;;0.40;;
19084;SDS011;9675;51.538;6.728;2024-01-15T15:02:56;0.10;;;0.10;;
19084;SDS011;9675;51.538;6.728;2024-01-15T15:05:24;4.73;;;0.60;;
19084;SDS011;9675;51.538;6.728;2024-01-15T15:07:51;1.10;;;0.70;;
19084;SDS011;9675;51.538;6.728;2024-01-15T15:10:18;0.77;;;0.53;;
19084;SDS011;9675;51.538;6.728;2024-01-15T15:12:47;3.03;;;0.53;;